sensor_id;sensor_type;location;lat;lon;timestamp;P1;durP1;ratioP1;P2;durP2;ratioP2
52124;SDS011;38119;52.710;6.398;2023-04-10T00:00:07;63.70;;;40.55;;
52124;SDS011;38119;52.710;6.398;2023-04-10T00:02:34;67.82;;;39.65;;
52124;SDS011;38119;52.710;6.398;2023-04-10T00:05:03;64.40;;;39.42;;
52124;SDS011;38119;52.710;6.398;2023-04-10T00:07:29;65.88;;;40.80;;
52124;SDS011;38119;52.710;6.398;2023-04-10T00:09:55;63.90;;;40.40;;
52124;SDS011;38119;52.710;6.398;2023-04-10T00:12:21;61.75;;;38.40;;
52124;SDS011;38119;52.710;6.398;2023-04-10T00:14:46;70.45;;;40.85;;
52124;SDS011;38119;52.710;6.398;2023-04-10T00:17:12;64.45;;;41.13;;
52124;SDS011;38119;52.710;6.398;2023-04-10T00:19:37;64.03;;;39.08;;
52124;SDS011;38119;52.710;6.398;2023-04-10T00:22:03;65.75;;;39.92;;
52124;SDS011;38119;52.710;6.398;2023-04-10T00:24:29;66.13;;;40.65;;
52124;SDS011;38119;52.710;6.398;2023-04-10T00:26:55;66.38;;;40.95;;
52124;SDS011;38119;52.710;6.398;2023-04-10T00:29:21;65.38;;;40.08;;
52124;SDS011;38119;52.710;6.398;2023-04-10T00:31:47;63.58;;;40.83;;
52124;SDS011;38119;52.710;6.398;2023-04-10T00:34:13;66.40;;;41.17;;
52124;SDS011;38119;52.710;6.398;2023-04-10T00:36:39;65.40;;;41.10;;
52124;SDS011;38119;52.710;6.398;2023-04-10T00:39:05;70.63;;;43.10;;
52124;SDS011;38119;52.710;6.398;2023-04-10T00:41:31;74.15;;;45.15;;
52124;SDS011;38119;52.710;6.398;2023-04-10T00:43:58;77.00;;;45.95;;
52124;SDS011;38119;52.710;6.398;2023-04-10T00:46:24;75.57;;;46.53;;
52124;SDS011;38119;52.710;6.398;2023-04-10T00:48:51;76.47;;;44.88;;
52124;SDS011;38119;52.710;6.398;2023-04-10T00:51:18;82.00;;;47.35;;
52124;SDS011;38119;52.710;6.398;2023-04-10T00:53:48;79.72;;;47.78;;
52124;SDS011;38119;52.710;6.398;2023-04-10T00:56:20;85.57;;;48.03;;
52124;SDS011;38119;52.710;6.398;2023-04-10T00:58:48;79.15;;;46.40;;
52124;SDS011;38119;52.710;6.398;2023-04-10T01:01:13;79.47;;;45.95;;
52124;SDS011;38119;52.710;6.398;2023-04-10T01:03:39;81.50;;;47.95;;
52124;SDS011;38119;52.710;6.398;2023-04-10T01:06:28;83.95;;;48.05;;
52124;SDS011;38119;52.710;6.398;2023-04-10T01:09:14;85.45;;;48.45;;
52124;SDS011;38119;52.710;6.398;2023-04-10T01:14:41;76.93;;;46.40;;
52124;SDS011;38119;52.710;6.398;2023-04-10T01:17:32;85.97;;;48.83;;
52124;SDS011;38119;52.710;6.398;2023-04-10T01:20:21;90.25;;;49.33;;
52124;SDS011;38119;52.710;6.398;2023-04-10T01:23:05;91.00;;;49.90;;
52124;SDS011;38119;52.710;6.398;2023-04-10T01:26:16;87.32;;;48.92;;
52124;SDS011;38119;52.710;6.398;2023-04-10T01:34:39;89.28;;;48.42;;
52124;SDS011;38119;52.710;6.398;2023-04-10T01:37:15;87.45;;;48.67;;
52124;SDS011;38119;52.710;6.398;2023-04-10T01:39:47;87.38;;;50.28;;
52124;SDS011;38119;52.710;6.398;2023-04-10T01:42:17;86.03;;;49.35;;
52124;SDS011;38119;52.710;6.398;2023-04-10T01:44:45;78.55;;;45.70;;
52124;SDS011;38119;52.710;6.398;2023-04-10T01:47:13;78.00;;;46.03;;
52124;SDS011;38119;52.710;6.398;2023-04-10T01:49:41;77.90;;;47.13;;
52124;SDS011;38119;52.710;6.398;2023-04-10T01:52:11;88.07;;;46.95;;
52124;SDS011;38119;52.710;6.398;2023-04-10T01:54:38;88.88;;;48.40;;
52124;SDS011;38119;52.710;6.398;2023-04-10T01:57:04;84.93;;;46.58;;
52124;SDS011;38119;52.710;6.398;2023-04-10T01:59:30;75.35;;;45.10;;
52124;SDS011;38119;52.710;6.398;2023-04-10T02:01:56;73.95;;;43.45;;
52124;SDS011;38119;52.710;6.398;2023-04-10T02:04:22;70.18;;;42.20;;
52124;SDS011;38119;52.710;6.398;2023-04-10T02:06:52;68.10;;;42.10;;
52124;SDS011;38119;52.710;6.398;2023-04-10T02:09:30;65.90;;;40.88;;
52124;SDS011;38119;52.710;6.398;2023-04-10T02:12:19;61.75;;;39.40;;
52124;SDS011;38119;52.710;6.398;2023-04-10T02:14:49;60.90;;;39.25;;
52124;SDS011;38119;52.710;6.398;2023-04-10T02:17:16;59.83;;;40.17;;
52124;SDS011;38119;52.710;6.398;2023-04-10T02:19:47;64.28;;;40.22;;
52124;SDS011;38119;52.710;6.398;2023-04-10T02:22:14;63.30;;;39.88;;
52124;SDS011;38119;52.710;6.398;2023-04-10T02:24:40;64.20;;;38.33;;
52124;SDS011;38119;52.710;6.398;2023-04-10T02:27:06;59.05;;;39.67;;
52124;SDS011;38119;52.710;6.398;2023-04-10T02:29:32;64.30;;;40.00;;
52124;SDS011;38119;52.710;6.398;2023-04-10T02:31:58;62.60;;;39.10;;
52124;SDS011;38119;52.710;6.398;2023-04-10T02:34:25;60.83;;;39.55;;
52124;SDS011;38119;52.710;6.398;2023-04-10T02:36:51;62.95;;;38.35;;
52124;SDS011;38119;52.710;6.398;2023-04-10T02:39:16;60.78;;;39.45;;
52124;SDS011;38119;52.710;6.398;2023-04-10T02:41:42;65.60;;;39.83;;
52124;SDS011;38119;52.710;6.398;2023-04-10T02:44:07;63.75;;;39.95;;
52124;SDS011;38119;52.710;6.398;2023-04-10T02:46:33;63.50;;;39.50;;
52124;SDS011;38119;52.710;6.398;2023-04-10T02:48:59;63.95;;;41.00;;
52124;SDS011;38119;52.710;6.398;2023-04-10T02:51:25;64.32;;;40.08;;
52124;SDS011;38119;52.710;6.398;2023-04-10T02:53:51;62.90;;;40.15;;
52124;SDS011;38119;52.710;6.398;2023-04-10T02:56:17;60.78;;;39.42;;
52124;SDS011;38119;52.710;6.398;2023-04-10T02:58:43;64.88;;;39.60;;
52124;SDS011;38119;52.710;6.398;2023-04-10T03:01:10;67.30;;;40.72;;
52124;SDS011;38119;52.710;6.398;2023-04-10T03:03:36;67.68;;;40.88;;
52124;SDS011;38119;52.710;6.398;2023-04-10T03:06:02;69.05;;;40.75;;
52124;SDS011;38119;52.710;6.398;2023-04-10T03:08:27;66.07;;;41.13;;
52124;SDS011;38119;52.710;6.398;2023-04-10T03:10:54;61.47;;;40.67;;
52124;SDS011;38119;52.710;6.398;2023-04-10T03:13:20;63.15;;;40.40;;
52124;SDS011;38119;52.710;6.398;2023-04-10T03:15:47;64.32;;;39.25;;
52124;SDS011;38119;52.710;6.398;2023-04-10T03:18:13;64.97;;;40.10;;
52124;SDS011;38119;52.710;6.398;2023-04-10T03:20:38;66.38;;;40.85;;
52124;SDS011;38119;52.710;6.398;2023-04-10T03:23:04;62.92;;;40.20;;
52124;SDS011;38119;52.710;6.398;2023-04-10T03:25:32;61.85;;;40.08;;
52124;SDS011;38119;52.710;6.398;2023-04-10T03:27:58;69.68;;;41.25;;
52124;SDS011;38119;52.710;6.398;2023-04-10T03:30:23;61.95;;;40.08;;
52124;SDS011;38119;52.710;6.398;2023-04-10T03:32:49;63.40;;;40.17;;
52124;SDS011;38119;52.710;6.398;2023-04-10T03:35:15;62.70;;;40.45;;
52124;SDS011;38119;52.710;6.398;2023-04-10T03:37:40;63.10;;;39.50;;
52124;SDS011;38119;52.710;6.398;2023-04-10T03:40:06;66.28;;;40.63;;
52124;SDS011;38119;52.710;6.398;2023-04-10T03:42:33;63.15;;;39.38;;
52124;SDS011;38119;52.710;6.398;2023-04-10T03:44:59;59.33;;;39.55;;
52124;SDS011;38119;52.710;6.398;2023-04-10T03:47:28;63.35;;;39.65;;
52124;SDS011;38119;52.710;6.398;2023-04-10T03:49:55;60.25;;;37.75;;
52124;SDS011;38119;52.710;6.398;2023-04-10T03:52:20;63.35;;;39.05;;
52124;SDS011;38119;52.710;6.398;2023-04-10T03:54:46;60.33;;;38.70;;
52124;SDS011;38119;52.710;6.398;2023-04-10T03:57:12;63.05;;;38.80;;
52124;SDS011;38119;52.710;6.398;2023-04-10T03:59:37;58.40;;;37.63;;
52124;SDS011;38119;52.710;6.398;2023-04-10T04:02:03;59.08;;;37.38;;
52124;SDS011;38119;52.710;6.398;2023-04-10T04:04:28;63.15;;;38.17;;
52124;SDS011;38119;52.710;6.398;2023-04-10T04:06:55;55.80;;;36.90;;
52124;SDS011;38119;52.710;6.398;2023-04-10T04:09:20;62.97;;;38.00;;
52124;SDS011;38119;52.710;6.398;2023-04-10T04:11:46;57.42;;;37.10;;
52124;SDS011;38119;52.710;6.398;2023-04-10T04:14:11;58.33;;;38.15;;
52124;SDS011;38119;52.710;6.398;2023-04-10T04:16:37;58.28;;;37.10;;
52124;SDS011;38119;52.710;6.398;2023-04-10T04:19:02;56.63;;;37.30;;
52124;SDS011;38119;52.710;6.398;2023-04-10T04:21:28;59.33;;;36.92;;
52124;SDS011;38119;52.710;6.398;2023-04-10T04:23:56;58.47;;;36.60;;
52124;SDS011;38119;52.710;6.398;2023-04-10T04:26:21;55.35;;;35.53;;
52124;SDS011;38119;52.710;6.398;2023-04-10T04:28:48;58.88;;;36.20;;
52124;SDS011;38119;52.710;6.398;2023-04-10T04:31:14;53.00;;;34.85;;
52124;SDS011;38119;52.710;6.398;2023-04-10T04:33:40;54.17;;;35.33;;
52124;SDS011;38119;52.710;6.398;2023-04-10T04:36:06;52.63;;;35.97;;
52124;SDS011;38119;52.710;6.398;2023-04-10T04:38:31;57.53;;;35.28;;
52124;SDS011;38119;52.710;6.398;2023-04-10T04:40:57;55.92;;;34.80;;
52124;SDS011;38119;52.710;6.398;2023-04-10T04:43:23;60.03;;;36.72;;
52124;SDS011;38119;52.710;6.398;2023-04-10T04:45:48;54.88;;;34.45;;
52124;SDS011;38119;52.710;6.398;2023-04-10T04:48:14;53.83;;;34.58;;
52124;SDS011;38119;52.710;6.398;2023-04-10T04:50:39;57.42;;;35.47;;
52124;SDS011;38119;52.710;6.398;2023-04-10T04:53:06;56.30;;;34.38;;
52124;SDS011;38119;52.710;6.398;2023-04-10T04:55:32;51.28;;;34.40;;
52124;SDS011;38119;52.710;6.398;2023-04-10T04:57:58;58.70;;;34.95;;
52124;SDS011;38119;52.710;6.398;2023-04-10T05:00:23;53.63;;;34.30;;
52124;SDS011;38119;52.710;6.398;2023-04-10T05:02:49;55.90;;;33.67;;
52124;SDS011;38119;52.710;6.398;2023-04-10T05:05:15;52.10;;;33.38;;
52124;SDS011;38119;52.710;6.398;2023-04-10T05:07:40;52.65;;;31.33;;
52124;SDS011;38119;52.710;6.398;2023-04-10T05:10:06;51.75;;;32.65;;
52124;SDS011;38119;52.710;6.398;2023-04-10T05:12:32;50.25;;;31.85;;
52124;SDS011;38119;52.710;6.398;2023-04-10T05:14:58;52.53;;;31.42;;
52124;SDS011;38119;52.710;6.398;2023-04-10T05:17:23;48.85;;;31.02;;
52124;SDS011;38119;52.710;6.398;2023-04-10T05:19:49;52.30;;;31.77;;
52124;SDS011;38119;52.710;6.398;2023-04-10T05:22:15;46.35;;;30.95;;
52124;SDS011;38119;52.710;6.398;2023-04-10T05:24:40;47.22;;;30.90;;
52124;SDS011;38119;52.710;6.398;2023-04-10T05:27:06;49.42;;;30.35;;
52124;SDS011;38119;52.710;6.398;2023-04-10T05:29:31;49.08;;;29.95;;
52124;SDS011;38119;52.710;6.398;2023-04-10T05:31:57;43.55;;;28.75;;
52124;SDS011;38119;52.710;6.398;2023-04-10T05:34:22;45.50;;;29.63;;
52124;SDS011;38119;52.710;6.398;2023-04-10T05:36:48;45.83;;;30.48;;
52124;SDS011;38119;52.710;6.398;2023-04-10T05:39:13;44.83;;;27.98;;
52124;SDS011;38119;52.710;6.398;2023-04-10T05:41:39;45.53;;;27.75;;
52124;SDS011;38119;52.710;6.398;2023-04-10T05:44:05;45.05;;;27.27;;
52124;SDS011;38119;52.710;6.398;2023-04-10T05:46:30;43.75;;;28.17;;
52124;SDS011;38119;52.710;6.398;2023-04-10T05:48:56;45.63;;;27.55;;
52124;SDS011;38119;52.710;6.398;2023-04-10T05:51:22;43.70;;;27.70;;
52124;SDS011;38119;52.710;6.398;2023-04-10T05:53:49;45.20;;;28.90;;
52124;SDS011;38119;52.710;6.398;2023-04-10T05:56:14;43.65;;;26.85;;
52124;SDS011;38119;52.710;6.398;2023-04-10T05:58:40;41.40;;;26.25;;
52124;SDS011;38119;52.710;6.398;2023-04-10T06:01:06;46.85;;;26.25;;
52124;SDS011;38119;52.710;6.398;2023-04-10T06:03:31;41.67;;;25.25;;
52124;SDS011;38119;52.710;6.398;2023-04-10T06:05:57;41.80;;;25.52;;
52124;SDS011;38119;52.710;6.398;2023-04-10T06:08:24;42.72;;;26.10;;
52124;SDS011;38119;52.710;6.398;2023-04-10T06:10:50;39.90;;;26.10;;
52124;SDS011;38119;52.710;6.398;2023-04-10T06:13:15;40.28;;;25.88;;
52124;SDS011;38119;52.710;6.398;2023-04-10T06:15:41;43.80;;;26.52;;
52124;SDS011;38119;52.710;6.398;2023-04-10T06:18:07;42.40;;;26.85;;
52124;SDS011;38119;52.710;6.398;2023-04-10T06:20:33;42.65;;;26.95;;
52124;SDS011;38119;52.710;6.398;2023-04-10T06:22:58;43.92;;;26.60;;
52124;SDS011;38119;52.710;6.398;2023-04-10T06:25:24;41.70;;;25.80;;
52124;SDS011;38119;52.710;6.398;2023-04-10T06:27:50;40.10;;;27.15;;
52124;SDS011;38119;52.710;6.398;2023-04-10T06:30:16;42.42;;;27.58;;
52124;SDS011;38119;52.710;6.398;2023-04-10T06:32:41;43.63;;;27.77;;
52124;SDS011;38119;52.710;6.398;2023-04-10T06:35:07;45.55;;;28.05;;
52124;SDS011;38119;52.710;6.398;2023-04-10T06:37:33;46.00;;;28.80;;
52124;SDS011;38119;52.710;6.398;2023-04-10T06:40:05;47.65;;;29.42;;
52124;SDS011;38119;52.710;6.398;2023-04-10T06:42:33;51.05;;;30.52;;
52124;SDS011;38119;52.710;6.398;2023-04-10T06:44:59;50.33;;;29.95;;
52124;SDS011;38119;52.710;6.398;2023-04-10T06:47:25;51.38;;;30.25;;
52124;SDS011;38119;52.710;6.398;2023-04-10T06:49:50;50.10;;;30.92;;
52124;SDS011;38119;52.710;6.398;2023-04-10T06:52:16;49.88;;;30.00;;
52124;SDS011;38119;52.710;6.398;2023-04-10T06:54:42;51.45;;;32.30;;
52124;SDS011;38119;52.710;6.398;2023-04-10T06:57:07;51.58;;;32.40;;
52124;SDS011;38119;52.710;6.398;2023-04-10T06:59:33;53.17;;;32.40;;
52124;SDS011;38119;52.710;6.398;2023-04-10T07:01:59;53.70;;;30.92;;
52124;SDS011;38119;52.710;6.398;2023-04-10T07:04:26;46.35;;;30.17;;
52124;SDS011;38119;52.710;6.398;2023-04-10T07:06:52;48.58;;;31.02;;
52124;SDS011;38119;52.710;6.398;2023-04-10T07:09:17;47.88;;;29.38;;
52124;SDS011;38119;52.710;6.398;2023-04-10T07:11:43;47.50;;;29.77;;
52124;SDS011;38119;52.710;6.398;2023-04-10T07:14:09;44.88;;;28.58;;
52124;SDS011;38119;52.710;6.398;2023-04-10T07:16:35;46.05;;;28.30;;
52124;SDS011;38119;52.710;6.398;2023-04-10T07:19:01;43.80;;;27.25;;
52124;SDS011;38119;52.710;6.398;2023-04-10T07:21:26;40.67;;;27.33;;
52124;SDS011;38119;52.710;6.398;2023-04-10T07:23:52;46.50;;;28.42;;
52124;SDS011;38119;52.710;6.398;2023-04-10T07:26:18;40.00;;;25.40;;
52124;SDS011;38119;52.710;6.398;2023-04-10T07:28:43;40.70;;;25.90;;
52124;SDS011;38119;52.710;6.398;2023-04-10T07:31:09;38.78;;;25.45;;
52124;SDS011;38119;52.710;6.398;2023-04-10T07:33:36;41.95;;;25.50;;
52124;SDS011;38119;52.710;6.398;2023-04-10T07:36:02;39.05;;;24.10;;
52124;SDS011;38119;52.710;6.398;2023-04-10T07:38:29;39.92;;;25.58;;
52124;SDS011;38119;52.710;6.398;2023-04-10T07:40:56;39.70;;;23.92;;
52124;SDS011;38119;52.710;6.398;2023-04-10T07:43:22;37.45;;;24.88;;
52124;SDS011;38119;52.710;6.398;2023-04-10T07:45:47;37.25;;;23.45;;
52124;SDS011;38119;52.710;6.398;2023-04-10T07:48:13;38.80;;;23.42;;
52124;SDS011;38119;52.710;6.398;2023-04-10T07:50:38;35.75;;;23.55;;
52124;SDS011;38119;52.710;6.398;2023-04-10T07:53:04;36.90;;;22.95;;
52124;SDS011;38119;52.710;6.398;2023-04-10T07:55:36;34.22;;;22.15;;
52124;SDS011;38119;52.710;6.398;2023-04-10T07:58:06;36.20;;;22.25;;
52124;SDS011;38119;52.710;6.398;2023-04-10T08:00:31;31.55;;;21.08;;
52124;SDS011;38119;52.710;6.398;2023-04-10T08:02:57;31.10;;;20.13;;
52124;SDS011;38119;52.710;6.398;2023-04-10T08:05:23;29.92;;;18.92;;
52124;SDS011;38119;52.710;6.398;2023-04-10T08:07:48;27.17;;;18.63;;
52124;SDS011;38119;52.710;6.398;2023-04-10T08:10:14;29.45;;;18.77;;
52124;SDS011;38119;52.710;6.398;2023-04-10T08:12:39;26.13;;;17.55;;
52124;SDS011;38119;52.710;6.398;2023-04-10T08:15:05;25.85;;;17.35;;
52124;SDS011;38119;52.710;6.398;2023-04-10T08:17:31;26.30;;;16.60;;
52124;SDS011;38119;52.710;6.398;2023-04-10T08:19:57;23.27;;;15.18;;
52124;SDS011;38119;52.710;6.398;2023-04-10T08:22:22;24.40;;;16.15;;
52124;SDS011;38119;52.710;6.398;2023-04-10T08:24:48;24.73;;;16.73;;
52124;SDS011;38119;52.710;6.398;2023-04-10T08:27:13;23.85;;;15.77;;
52124;SDS011;38119;52.710;6.398;2023-04-10T08:29:40;21.90;;;14.07;;
52124;SDS011;38119;52.710;6.398;2023-04-10T08:32:06;22.40;;;14.02;;
52124;SDS011;38119;52.710;6.398;2023-04-10T08:34:32;21.85;;;14.90;;
52124;SDS011;38119;52.710;6.398;2023-04-10T08:36:57;20.55;;;14.13;;
52124;SDS011;38119;52.710;6.398;2023-04-10T08:39:23;19.67;;;13.55;;
52124;SDS011;38119;52.710;6.398;2023-04-10T08:41:49;23.55;;;14.23;;
52124;SDS011;38119;52.710;6.398;2023-04-10T08:44:15;18.55;;;12.88;;
52124;SDS011;38119;52.710;6.398;2023-04-10T08:46:41;17.75;;;12.90;;
52124;SDS011;38119;52.710;6.398;2023-04-10T08:49:09;20.17;;;12.75;;
52124;SDS011;38119;52.710;6.398;2023-04-10T08:51:45;19.58;;;12.57;;
52124;SDS011;38119;52.710;6.398;2023-04-10T08:54:27;21.60;;;12.95;;
52124;SDS011;38119;52.710;6.398;2023-04-10T08:56:54;18.27;;;13.20;;
52124;SDS011;38119;52.710;6.398;2023-04-10T08:59:20;17.48;;;12.02;;
52124;SDS011;38119;52.710;6.398;2023-04-10T09:01:46;18.15;;;12.43;;
52124;SDS011;38119;52.710;6.398;2023-04-10T09:04:12;17.30;;;12.73;;
52124;SDS011;38119;52.710;6.398;2023-04-10T09:06:38;18.77;;;12.52;;
52124;SDS011;38119;52.710;6.398;2023-04-10T09:09:04;16.10;;;11.23;;
52124;SDS011;38119;52.710;6.398;2023-04-10T09:14:25;16.63;;;11.82;;
52124;SDS011;38119;52.710;6.398;2023-04-10T09:16:52;15.25;;;10.65;;
52124;SDS011;38119;52.710;6.398;2023-04-10T09:19:31;16.63;;;11.30;;
52124;SDS011;38119;52.710;6.398;2023-04-10T09:21:57;15.23;;;11.00;;
52124;SDS011;38119;52.710;6.398;2023-04-10T09:24:23;15.18;;;11.40;;
52124;SDS011;38119;52.710;6.398;2023-04-10T09:26:50;17.05;;;10.95;;
52124;SDS011;38119;52.710;6.398;2023-04-10T09:29:15;16.17;;;10.95;;
52124;SDS011;38119;52.710;6.398;2023-04-10T09:31:41;14.82;;;10.75;;
52124;SDS011;38119;52.710;6.398;2023-04-10T09:34:15;16.80;;;11.50;;
52124;SDS011;38119;52.710;6.398;2023-04-10T09:36:42;15.63;;;10.75;;
52124;SDS011;38119;52.710;6.398;2023-04-10T09:39:16;14.38;;;10.27;;
52124;SDS011;38119;52.710;6.398;2023-04-10T09:41:46;14.40;;;10.60;;
52124;SDS011;38119;52.710;6.398;2023-04-10T09:44:16;13.70;;;10.00;;
52124;SDS011;38119;52.710;6.398;2023-04-10T09:46:44;12.98;;;9.50;;
52124;SDS011;38119;52.710;6.398;2023-04-10T09:49:10;13.32;;;9.85;;
52124;SDS011;38119;52.710;6.398;2023-04-10T09:51:35;11.85;;;8.88;;
52124;SDS011;38119;52.710;6.398;2023-04-10T09:54:03;12.05;;;8.88;;
52124;SDS011;38119;52.710;6.398;2023-04-10T09:56:29;13.20;;;8.95;;
52124;SDS011;38119;52.710;6.398;2023-04-10T09:58:59;12.77;;;8.88;;
52124;SDS011;38119;52.710;6.398;2023-04-10T10:01:26;13.40;;;8.30;;
52124;SDS011;38119;52.710;6.398;2023-04-10T10:03:53;11.35;;;8.43;;
52124;SDS011;38119;52.710;6.398;2023-04-10T10:06:20;11.15;;;8.40;;
52124;SDS011;38119;52.710;6.398;2023-04-10T10:08:50;9.95;;;7.57;;
52124;SDS011;38119;52.710;6.398;2023-04-10T10:11:20;12.63;;;8.23;;
52124;SDS011;38119;52.710;6.398;2023-04-10T10:13:49;10.98;;;8.23;;
52124;SDS011;38119;52.710;6.398;2023-04-10T10:18:52;10.48;;;7.55;;
52124;SDS011;38119;52.710;6.398;2023-04-10T10:21:25;10.75;;;7.65;;
52124;SDS011;38119;52.710;6.398;2023-04-10T10:23:52;10.55;;;7.00;;
52124;SDS011;38119;52.710;6.398;2023-04-10T10:26:20;10.77;;;7.65;;
52124;SDS011;38119;52.710;6.398;2023-04-10T10:28:48;11.15;;;7.10;;
52124;SDS011;38119;52.710;6.398;2023-04-10T10:31:16;11.00;;;7.70;;
52124;SDS011;38119;52.710;6.398;2023-04-10T10:33:43;10.35;;;7.43;;
52124;SDS011;38119;52.710;6.398;2023-04-10T10:36:11;10.07;;;7.55;;
52124;SDS011;38119;52.710;6.398;2023-04-10T10:38:39;10.00;;;7.38;;
52124;SDS011;38119;52.710;6.398;2023-04-10T10:41:17;9.90;;;7.22;;
52124;SDS011;38119;52.710;6.398;2023-04-10T10:43:59;11.00;;;7.68;;
52124;SDS011;38119;52.710;6.398;2023-04-10T10:46:33;14.10;;;7.20;;
52124;SDS011;38119;52.710;6.398;2023-04-10T10:49:04;10.23;;;7.10;;
52124;SDS011;38119;52.710;6.398;2023-04-10T10:51:43;8.95;;;6.78;;
52124;SDS011;38119;52.710;6.398;2023-04-10T10:54:26;9.48;;;6.93;;
52124;SDS011;38119;52.710;6.398;2023-04-10T10:56:52;11.20;;;7.00;;
52124;SDS011;38119;52.710;6.398;2023-04-10T10:59:18;8.25;;;6.38;;
52124;SDS011;38119;52.710;6.398;2023-04-10T11:02:13;8.45;;;6.28;;
52124;SDS011;38119;52.710;6.398;2023-04-10T11:04:43;14.38;;;7.15;;
52124;SDS011;38119;52.710;6.398;2023-04-10T11:07:10;8.77;;;6.28;;
52124;SDS011;38119;52.710;6.398;2023-04-10T11:09:49;9.52;;;6.63;;
52124;SDS011;38119;52.710;6.398;2023-04-10T11:12:22;8.65;;;6.68;;
52124;SDS011;38119;52.710;6.398;2023-04-10T11:20:19;10.43;;;6.10;;
52124;SDS011;38119;52.710;6.398;2023-04-10T11:25:48;9.10;;;6.53;;
52124;SDS011;38119;52.710;6.398;2023-04-10T11:30:55;9.20;;;6.18;;
52124;SDS011;38119;52.710;6.398;2023-04-10T11:33:37;9.02;;;5.97;;
52124;SDS011;38119;52.710;6.398;2023-04-10T11:36:04;9.00;;;5.95;;
52124;SDS011;38119;52.710;6.398;2023-04-10T11:38:30;9.30;;;6.38;;
52124;SDS011;38119;52.710;6.398;2023-04-10T11:41:05;9.10;;;5.88;;
52124;SDS011;38119;52.710;6.398;2023-04-10T11:43:31;8.82;;;6.28;;
52124;SDS011;38119;52.710;6.398;2023-04-10T11:46:01;9.32;;;5.97;;
52124;SDS011;38119;52.710;6.398;2023-04-10T11:48:28;10.10;;;6.35;;
52124;SDS011;38119;52.710;6.398;2023-04-10T11:50:55;10.32;;;6.40;;
52124;SDS011;38119;52.710;6.398;2023-04-10T11:53:21;11.07;;;7.05;;
52124;SDS011;38119;52.710;6.398;2023-04-10T11:55:46;10.77;;;6.57;;
52124;SDS011;38119;52.710;6.398;2023-04-10T11:58:25;8.45;;;6.28;;
52124;SDS011;38119;52.710;6.398;2023-04-10T12:01:10;8.65;;;6.50;;
52124;SDS011;38119;52.710;6.398;2023-04-10T12:03:39;9.77;;;6.90;;
52124;SDS011;38119;52.710;6.398;2023-04-10T12:06:09;8.52;;;6.35;;
52124;SDS011;38119;52.710;6.398;2023-04-10T12:08:37;13.00;;;6.45;;
52124;SDS011;38119;52.710;6.398;2023-04-10T12:11:10;9.15;;;6.43;;
52124;SDS011;38119;52.710;6.398;2023-04-10T12:13:37;9.20;;;6.57;;
52124;SDS011;38119;52.710;6.398;2023-04-10T12:16:03;8.68;;;6.35;;
52124;SDS011;38119;52.710;6.398;2023-04-10T12:18:31;8.13;;;6.30;;
52124;SDS011;38119;52.710;6.398;2023-04-10T12:20:58;8.15;;;5.88;;
52124;SDS011;38119;52.710;6.398;2023-04-10T12:23:25;8.15;;;6.00;;
52124;SDS011;38119;52.710;6.398;2023-04-10T12:25:52;8.90;;;6.45;;
52124;SDS011;38119;52.710;6.398;2023-04-10T12:28:29;8.60;;;5.78;;
52124;SDS011;38119;52.710;6.398;2023-04-10T12:30:55;9.25;;;6.15;;
52124;SDS011;38119;52.710;6.398;2023-04-10T12:33:21;9.60;;;6.47;;
52124;SDS011;38119;52.710;6.398;2023-04-10T12:35:48;8.57;;;6.35;;
52124;SDS011;38119;52.710;6.398;2023-04-10T12:38:15;10.10;;;6.20;;
52124;SDS011;38119;52.710;6.398;2023-04-10T12:41:00;9.57;;;6.00;;
52124;SDS011;38119;52.710;6.398;2023-04-10T12:43:30;8.57;;;6.25;;
52124;SDS011;38119;52.710;6.398;2023-04-10T12:45:59;9.48;;;5.70;;
52124;SDS011;38119;52.710;6.398;2023-04-10T12:48:25;7.78;;;5.10;;
52124;SDS011;38119;52.710;6.398;2023-04-10T12:50:51;7.65;;;5.88;;
52124;SDS011;38119;52.710;6.398;2023-04-10T12:53:16;10.00;;;6.20;;
52124;SDS011;38119;52.710;6.398;2023-04-10T12:55:55;7.82;;;6.00;;
52124;SDS011;38119;52.710;6.398;2023-04-10T12:58:25;8.57;;;5.68;;
52124;SDS011;38119;52.710;6.398;2023-04-10T13:00:55;8.60;;;5.53;;
52124;SDS011;38119;52.710;6.398;2023-04-10T13:03:35;9.95;;;5.82;;
52124;SDS011;38119;52.710;6.398;2023-04-10T13:06:02;9.00;;;6.25;;
52124;SDS011;38119;52.710;6.398;2023-04-10T13:08:29;7.97;;;6.15;;
52124;SDS011;38119;52.710;6.398;2023-04-10T13:10:56;8.30;;;5.70;;
52124;SDS011;38119;52.710;6.398;2023-04-10T13:13:26;10.60;;;7.10;;
52124;SDS011;38119;52.710;6.398;2023-04-10T13:15:54;8.68;;;6.00;;
52124;SDS011;38119;52.710;6.398;2023-04-10T13:18:19;10.55;;;7.28;;
52124;SDS011;38119;52.710;6.398;2023-04-10T13:20:45;9.35;;;5.65;;
52124;SDS011;38119;52.710;6.398;2023-04-10T13:23:11;8.93;;;6.53;;
52124;SDS011;38119;52.710;6.398;2023-04-10T13:25:37;7.97;;;6.18;;
52124;SDS011;38119;52.710;6.398;2023-04-10T13:28:04;8.98;;;6.53;;
52124;SDS011;38119;52.710;6.398;2023-04-10T13:30:34;8.00;;;6.40;;
52124;SDS011;38119;52.710;6.398;2023-04-10T13:33:00;8.88;;;6.82;;
52124;SDS011;38119;52.710;6.398;2023-04-10T13:35:25;8.50;;;5.90;;
52124;SDS011;38119;52.710;6.398;2023-04-10T13:37:51;7.75;;;5.90;;
52124;SDS011;38119;52.710;6.398;2023-04-10T13:40:18;8.95;;;5.75;;
52124;SDS011;38119;52.710;6.398;2023-04-10T13:42:45;9.65;;;6.03;;
52124;SDS011;38119;52.710;6.398;2023-04-10T13:45:11;9.43;;;5.50;;
52124;SDS011;38119;52.710;6.398;2023-04-10T13:47:36;7.35;;;5.90;;
52124;SDS011;38119;52.710;6.398;2023-04-10T13:50:02;8.48;;;5.82;;
52124;SDS011;38119;52.710;6.398;2023-04-10T13:52:28;7.85;;;5.93;;
52124;SDS011;38119;52.710;6.398;2023-04-10T13:54:53;9.55;;;5.57;;
52124;SDS011;38119;52.710;6.398;2023-04-10T13:57:19;7.20;;;5.07;;
52124;SDS011;38119;52.710;6.398;2023-04-10T13:59:44;8.43;;;5.70;;
52124;SDS011;38119;52.710;6.398;2023-04-10T14:02:10;8.27;;;6.15;;
52124;SDS011;38119;52.710;6.398;2023-04-10T14:04:35;10.20;;;5.47;;
52124;SDS011;38119;52.710;6.398;2023-04-10T14:07:01;8.95;;;5.57;;
52124;SDS011;38119;52.710;6.398;2023-04-10T14:09:27;10.70;;;5.93;;
52124;SDS011;38119;52.710;6.398;2023-04-10T14:11:52;7.03;;;5.38;;
52124;SDS011;38119;52.710;6.398;2023-04-10T14:14:20;7.43;;;5.15;;
52124;SDS011;38119;52.710;6.398;2023-04-10T14:16:48;9.52;;;5.78;;
52124;SDS011;38119;52.710;6.398;2023-04-10T14:19:13;7.07;;;5.10;;
52124;SDS011;38119;52.710;6.398;2023-04-10T14:21:39;7.47;;;5.40;;
52124;SDS011;38119;52.710;6.398;2023-04-10T14:24:07;8.93;;;5.32;;
52124;SDS011;38119;52.710;6.398;2023-04-10T14:26:33;7.05;;;4.88;;
52124;SDS011;38119;52.710;6.398;2023-04-10T14:28:59;10.98;;;5.10;;
52124;SDS011;38119;52.710;6.398;2023-04-10T14:31:24;7.10;;;5.13;;
52124;SDS011;38119;52.710;6.398;2023-04-10T14:33:50;9.75;;;5.40;;
52124;SDS011;38119;52.710;6.398;2023-04-10T14:36:15;10.13;;;5.68;;
52124;SDS011;38119;52.710;6.398;2023-04-10T14:38:41;7.90;;;5.13;;
52124;SDS011;38119;52.710;6.398;2023-04-10T14:41:06;10.57;;;5.50;;
52124;SDS011;38119;52.710;6.398;2023-04-10T14:43:32;8.93;;;5.50;;
52124;SDS011;38119;52.710;6.398;2023-04-10T14:45:57;8.63;;;5.40;;
52124;SDS011;38119;52.710;6.398;2023-04-10T14:48:23;7.53;;;5.25;;
52124;SDS011;38119;52.710;6.398;2023-04-10T14:50:49;9.32;;;5.65;;
52124;SDS011;38119;52.710;6.398;2023-04-10T14:53:14;7.72;;;5.55;;
52124;SDS011;38119;52.710;6.398;2023-04-10T14:55:40;8.65;;;6.00;;